Time;durP1;ratioP1;P1;durP2;ratioP2;P2;SDS_P1;SDS_P2;PMS_P1;PMS_P2;Temp;Humidity;BMP_temperature;BMP_pressure;BME280_temperature;BME280_humidity;BME280_pressure;Samples;Min_cycle;Max_cycle;Signal;HPM_P1;HPM_P2
2021/06/12 00:01:06;;;;;;;10.40;9.60;;;25.60;56.50;;;;;;4958172;29;20423;-80
2021/06/12 00:03:36;;;;;;;10.33;9.30;;;25.60;56.50;;;;;;4956276;29;20516;-80
2021/06/12 00:06:04;;;;;;;7.83;7.23;;;25.60;56.40;;;;;;4941541;29;20498;-80
2021/06/12 00:08:31;;;;;;;9.87;9.07;;;25.60;56.40;;;;;;4956417;29;20924;-80
2021/06/12 00:10:57;;;;;;;8.80;8.10;;;25.60;56.40;;;;;;4956307;29;20419;-80
2021/06/12 00:13:28;;;;;;;9.13;8.40;;;25.60;56.40;;;;;;4955843;29;20423;-81
2021/06/12 00:16:02;;;;;;;8.87;8.17;;;25.60;56.70;;;;;;4956449;29;20430;-80
2021/06/12 00:18:31;;;;;;;9.73;8.93;;;25.60;56.80;;;;;;4957569;29;20422;-80
2021/06/12 00:21:00;;;;;;;9.87;9.17;;;25.60;56.80;;;;;;4940246;29;20446;-80
2021/06/12 00:23:26;;;;;;;9.73;8.93;;;25.50;57.00;;;;;;4957042;29;20478;-80
2021/06/12 00:25:52;;;;;;;9.70;9.00;;;25.50;56.90;;;;;;4956831;29;20419;-80
2021/06/12 00:28:19;;;;;;;9.63;8.87;;;25.50;56.80;;;;;;4956220;29;20423;-81
2021/06/12 00:30:45;;;;;;;9.77;9.07;;;25.50;56.80;;;;;;4956157;29;20431;-80
2021/06/12 00:33:11;;;;;;;9.77;8.77;;;25.60;56.80;;;;;;4955595;29;20805;-80
2021/06/12 00:35:44;;;;;;;10.27;9.47;;;25.50;56.80;;;;;;4957020;29;20510;-81
2021/06/12 00:38:10;;;;;;;10.20;9.30;;;25.60;56.90;;;;;;4957112;29;20434;-80
2021/06/12 00:40:36;;;;;;;10.20;9.40;;;25.50;57.10;;;;;;4957634;29;20415;-80
2021/06/12 00:43:04;;;;;;;9.67;8.87;;;25.40;57.10;;;;;;4955602;29;20478;-80
2021/06/12 00:45:31;;;;;;;9.83;9.03;;;25.40;57.10;;;;;;4956565;29;20453;-81
2021/06/12 00:47:58;;;;;;;9.90;9.20;;;25.40;57.20;;;;;;4956213;29;20453;-80
2021/06/12 00:50:26;;;;;;;10.53;9.53;;;25.40;57.10;;;;;;4958279;29;20820;-80
2021/06/12 00:52:53;;;;;;;10.37;9.47;;;25.30;57.40;;;;;;4957128;29;20439;-80
2021/06/12 00:55:20;;;;;;;10.77;9.87;;;25.30;57.30;;;;;;4956550;29;20427;-81
2021/06/12 00:57:46;;;;;;;10.93;10.13;;;25.30;57.50;;;;;;4955256;29;20842;-80
2021/06/12 01:00:15;;;;;;;9.53;8.73;;;25.20;58.00;;;;;;4956082;29;20423;-81
2021/06/12 01:02:41;;;;;;;9.67;8.77;;;25.20;57.50;;;;;;4956290;29;20533;-80
2021/06/12 01:05:09;;;;;;;10.80;9.77;;;25.20;57.50;;;;;;4956306;29;20419;-80
2021/06/12 01:07:35;;;;;;;10.60;9.70;;;25.20;57.60;;;;;;4956918;29;20955;-80
2021/06/12 01:10:02;;;;;;;9.83;9.03;;;25.20;57.50;;;;;;4956133;29;20426;-80
2021/06/12 01:12:38;;;;;;;10.43;9.53;;;25.20;57.40;;;;;;4955934;29;20431;-80
2021/06/12 01:15:06;;;;;;;9.87;9.07;;;25.30;57.20;;;;;;4940582;29;20454;-80
2021/06/12 01:17:53;;;;;;;10.33;9.53;;;25.30;57.20;;;;;;4956668;29;20488;-80
2021/06/12 01:20:57;;;;;;;10.30;9.50;;;25.30;57.20;;;;;;4956446;29;20431;-80
2021/06/12 01:23:50;;;;;;;9.83;9.03;;;25.30;57.10;;;;;;4956188;29;20453;-81
2021/06/12 01:26:24;;;;;;;9.73;8.97;;;25.30;57.30;;;;;;4955578;29;20451;-80
2021/06/12 01:29:20;;;;;;;10.10;9.27;;;25.30;57.20;;;;;;4955790;29;20443;-80
2021/06/12 01:31:46;;;;;;;10.03;9.27;;;25.40;57.00;;;;;;4955095;29;20424;-80
2021/06/12 01:34:12;;;;;;;10.13;9.23;;;25.30;57.00;;;;;;4939407;29;20436;-80
2021/06/12 01:36:57;;;;;;;9.83;9.03;;;25.40;57.00;;;;;;4954921;29;20435;-80
2021/06/12 01:39:30;;;;;;;10.33;9.43;;;25.40;56.90;;;;;;4954619;29;20501;-80
2021/06/12 01:41:59;;;;;;;11.20;10.33;;;25.40;56.80;;;;;;4955276;29;20434;-80
2021/06/12 01:44:28;;;;;;;10.30;9.50;;;25.50;56.80;;;;;;4955387;29;20462;-80
2021/06/12 01:46:56;;;;;;;10.37;9.47;;;25.40;56.70;;;;;;4955435;29;20478;-80
2021/06/12 01:49:23;;;;;;;10.17;9.20;;;25.50;56.70;;;;;;4956171;29;20415;-80
2021/06/12 01:51:50;;;;;;;11.20;9.37;;;25.50;56.70;;;;;;4955603;29;20434;-81
2021/06/12 01:54:17;;;;;;;10.60;9.77;;;25.50;56.60;;;;;;4955820;29;20418;-80
2021/06/12 01:56:44;;;;;;;11.37;10.40;;;25.50;56.60;;;;;;4955321;29;20434;-81
2021/06/12 01:59:11;;;;;;;10.60;9.77;;;25.60;57.20;;;;;;4955333;29;20431;-80
2021/06/12 02:01:40;;;;;;;11.13;10.30;;;25.60;56.70;;;;;;4955040;29;20430;-80
2021/06/12 02:04:09;;;;;;;10.83;9.93;;;25.60;56.60;;;;;;4954629;29;20482;-81
2021/06/12 02:06:36;;;;;;;10.40;9.60;;;25.60;56.50;;;;;;4953369;29;20433;-81
2021/06/12 02:09:03;;;;;;;10.63;9.80;;;25.60;56.50;;;;;;4953880;29;20470;-80
2021/06/12 02:11:29;;;;;;;10.10;9.20;;;25.60;56.50;;;;;;4953937;29;20490;-80
2021/06/12 02:13:56;;;;;;;10.43;9.63;;;25.60;56.50;;;;;;4953865;29;20434;-80
2021/06/12 02:16:24;;;;;;;10.50;9.67;;;25.60;56.50;;;;;;4953162;29;20433;-80
2021/06/12 02:18:51;;;;;;;10.87;9.97;;;25.60;56.50;;;;;;4954902;29;20414;-80
2021/06/12 02:21:20;;;;;;;9.53;8.83;;;25.60;56.50;;;;;;4954048;29;20426;-80
2021/06/12 02:23:58;;;;;;;10.60;9.80;;;25.60;56.60;;;;;;4953880;29;20447;-80
2021/06/12 02:26:27;;;;;;;10.23;9.43;;;25.50;56.50;;;;;;4954858;29;20490;-81
2021/06/12 02:28:56;;;;;;;10.27;9.23;;;25.50;56.60;;;;;;4953630;29;20532;-80
2021/06/12 02:31:26;;;;;;;10.20;9.40;;;25.50;56.60;;;;;;4954362;29;20407;-80
2021/06/12 02:33:52;;;;;;;10.67;9.83;;;25.50;57.20;;;;;;4953875;29;20427;-80
2021/06/12 02:36:19;;;;;;;10.37;9.57;;;25.50;56.70;;;;;;4954680;29;20947;-80
2021/06/12 02:38:46;;;;;;;10.03;9.13;;;25.50;56.70;;;;;;4953500;29;20183;-80
2021/06/12 02:41:13;;;;;;;10.07;9.27;;;25.40;56.70;;;;;;4954555;29;20426;-80
2021/06/12 02:43:42;;;;;;;10.63;9.73;;;25.50;56.80;;;;;;4953420;29;20457;-80
2021/06/12 02:46:22;;;;;;;10.67;9.77;;;25.40;56.90;;;;;;4954322;29;20434;-80
2021/06/12 02:48:54;;;;;;;9.77;8.97;;;25.40;56.80;;;;;;4954213;29;20397;-80
2021/06/12 02:51:21;;;;;;;9.77;8.97;;;25.40;56.80;;;;;;4954137;29;20402;-81
2021/06/12 02:53:49;;;;;;;11.03;10.03;;;25.40;56.80;;;;;;4953424;29;20953;-80
2021/06/12 02:56:15;;;;;;;9.83;9.00;;;25.40;56.90;;;;;;4953041;29;20450;-80
2021/06/12 02:58:43;;;;;;;10.23;9.43;;;25.30;56.80;;;;;;4953571;29;20427;-80
2021/06/12 03:01:09;;;;;;;10.03;9.23;;;25.30;56.90;;;;;;4952730;29;20866;-80
2021/06/12 03:03:37;;;;;;;10.47;9.60;;;25.30;56.90;;;;;;4954723;29;20447;-80
2021/06/12 03:06:04;;;;;;;10.10;9.30;;;25.30;56.90;;;;;;4953100;29;20427;-80
2021/06/12 03:08:37;;;;;;;10.70;9.80;;;25.30;56.90;;;;;;4952927;29;20415;-80
2021/06/12 03:11:06;;;;;;;9.70;8.90;;;25.30;56.90;;;;;;4953512;29;20422;-80
2021/06/12 03:13:33;;;;;;;9.97;9.17;;;25.30;56.90;;;;;;4954281;29;20415;-81
2021/06/12 03:16:01;;;;;;;9.80;9.00;;;25.30;57.00;;;;;;4954558;29;20442;-80
2021/06/12 03:18:28;;;;;;;10.23;9.33;;;25.20;56.90;;;;;;4954116;29;20423;-80
2021/06/12 03:21:01;;;;;;;9.63;8.87;;;25.30;56.90;;;;;;4953513;29;20419;-80
2021/06/12 03:23:30;;;;;;;10.30;9.40;;;25.30;56.90;;;;;;4951995;29;20501;-80
2021/06/12 03:25:59;;;;;;;10.97;9.80;;;25.20;56.80;;;;;;4953395;29;20418;-80
2021/06/12 03:28:28;;;;;;;11.60;10.50;;;25.20;56.90;;;;;;4952597;29;20419;-80
2021/06/12 03:30:54;;;;;;;11.23;10.00;;;25.30;56.90;;;;;;4953522;29;20426;-80
2021/06/12 03:33:21;;;;;;;10.40;9.60;;;25.20;56.90;;;;;;4954078;29;20426;-80
2021/06/12 03:35:49;;;;;;;9.77;8.97;;;25.30;56.90;;;;;;4954145;29;20423;-81
2021/06/12 03:38:16;;;;;;;10.13;9.10;;;25.30;56.90;;;;;;4953419;29;20419;-80
2021/06/12 03:40:42;;;;;;;10.30;9.40;;;25.20;56.90;;;;;;4952714;29;20430;-80
2021/06/12 03:43:09;;;;;;;10.57;9.70;;;25.20;56.80;;;;;;4953138;29;20454;-80
2021/06/12 03:45:41;;;;;;;10.10;9.30;;;25.20;56.80;;;;;;4954377;29;20406;-80
2021/06/12 03:48:08;;;;;;;9.90;9.03;;;25.20;56.80;;;;;;4953502;29;20438;-80
2021/06/12 03:50:36;;;;;;;10.40;9.50;;;25.10;56.80;;;;;;4954438;29;20423;-81
2021/06/12 03:53:04;;;;;;;10.17;9.27;;;25.20;56.90;;;;;;4954808;29;20455;-80
2021/06/12 03:55:30;;;;;;;10.63;9.63;;;25.20;56.80;;;;;;4953399;29;20434;-80
2021/06/12 03:57:57;;;;;;;10.40;9.60;;;25.10;56.80;;;;;;4953345;29;20426;-81
2021/06/12 04:00:23;;;;;;;10.50;9.70;;;25.10;56.80;;;;;;4954552;29;20415;-81
2021/06/12 04:02:50;;;;;;;10.70;9.80;;;25.10;56.80;;;;;;4952947;29;20482;-80
2021/06/12 04:05:17;;;;;;;10.50;9.60;;;25.10;56.80;;;;;;4954107;29;20426;-81
2021/06/12 04:07:43;;;;;;;9.40;8.70;;;25.10;56.80;;;;;;4954227;29;20419;-80
2021/06/12 04:10:11;;;;;;;10.47;9.67;;;25.10;57.40;;;;;;4968913;28;20459;-80
2021/06/12 04:12:37;;;;;;;10.60;9.73;;;25.10;57.40;;;;;;4952524;29;20446;-80
2021/06/12 04:15:06;;;;;;;10.53;9.67;;;25.20;56.90;;;;;;4953610;29;20462;-81
2021/06/12 04:17:32;;;;;;;9.63;8.63;;;25.10;56.80;;;;;;4953415;29;20431;-80
2021/06/12 04:19:59;;;;;;;9.77;8.97;;;25.20;56.80;;;;;;4969702;28;20423;-81
2021/06/12 04:22:26;;;;;;;9.53;8.70;;;25.20;56.80;;;;;;4970002;28;20913;-80
2021/06/12 04:24:52;;;;;;;9.97;9.17;;;25.20;56.80;;;;;;4971237;28;20427;-80
2021/06/12 04:27:18;;;;;;;9.93;9.03;;;25.10;56.70;;;;;;4955203;29;20749;-80
2021/06/12 04:29:44;;;;;;;11.13;9.60;;;25.20;56.80;;;;;;4971409;28;20458;-80
2021/06/12 04:32:10;;;;;;;9.63;8.93;;;25.20;56.80;;;;;;4954866;29;20403;-80
2021/06/12 04:34:36;;;;;;;9.57;8.77;;;25.10;56.90;;;;;;4956521;29;20164;-80
2021/06/12 04:37:03;;;;;;;9.70;8.90;;;25.10;56.90;;;;;;4959670;29;20183;-80
2021/06/12 04:39:30;;;;;;;9.47;8.77;;;25.10;56.90;;;;;;4974148;28;20502;-80
2021/06/12 04:41:57;;;;;;;9.93;9.10;;;25.10;56.80;;;;;;4973883;28;20454;-80
2021/06/12 04:44:22;;;;;;;10.97;9.90;;;25.10;56.90;;;;;;4974001;28;20446;-80
2021/06/12 04:46:48;;;;;;;11.30;9.97;;;25.10;56.90;;;;;;4958135;29;20441;-80
2021/06/12 04:49:14;;;;;;;11.03;9.93;;;25.10;56.80;;;;;;4974519;28;20427;-80
2021/06/12 04:51:40;;;;;;;10.37;9.60;;;25.20;56.80;;;;;;4958637;29;20175;-80
2021/06/12 04:54:06;;;;;;;10.23;9.43;;;25.10;56.90;;;;;;4957670;29;20442;-80
2021/06/12 04:56:32;;;;;;;10.00;9.10;;;25.10;56.80;;;;;;4958045;29;20175;-80
2021/06/12 04:58:58;;;;;;;10.00;9.20;;;25.10;56.80;;;;;;4974055;29;20438;-80
2021/06/12 05:01:24;;;;;;;12.00;10.90;;;25.20;56.90;;;;;;4959051;29;20198;-80
2021/06/12 05:03:49;;;;;;;10.53;9.70;;;25.20;57.50;;;;;;4974054;28;20226;-80
2021/06/12 05:06:15;;;;;;;11.10;10.17;;;25.20;56.90;;;;;;4974824;28;20210;-80
2021/06/12 05:08:41;;;;;;;10.20;9.40;;;25.20;56.80;;;;;;4958700;29;20190;-80
2021/06/12 05:11:07;;;;;;;10.80;9.70;;;25.20;56.90;;;;;;4973964;28;20253;-80
2021/06/12 05:13:35;;;;;;;10.33;9.43;;;25.10;56.90;;;;;;4974414;28;20415;-80
2021/06/12 05:16:03;;;;;;;11.20;9.70;;;25.10;56.90;;;;;;4957787;29;20203;-80
2021/06/12 05:18:39;;;;;;;9.97;9.17;;;25.10;57.00;;;;;;4973991;28;20450;-80
2021/06/12 05:21:10;;;;;;;10.37;9.47;;;25.10;57.00;;;;;;4973322;29;20418;-80
2021/06/12 05:23:37;;;;;;;9.70;8.90;;;25.10;57.00;;;;;;4973327;29;20478;-80
2021/06/12 05:26:04;;;;;;;10.17;9.37;;;25.10;57.10;;;;;;4973078;28;20455;-81
2021/06/12 05:28:34;;;;;;;10.50;9.70;;;25.10;57.10;;;;;;4956489;29;20411;-80
2021/06/12 05:31:00;;;;;;;11.50;10.50;;;25.10;57.10;;;;;;4973088;28;20403;-81
2021/06/12 05:33:27;;;;;;;10.23;9.33;;;25.10;57.30;;;;;;4956751;29;20499;-80
2021/06/12 05:35:56;;;;;;;9.20;8.40;;;25.10;57.20;;;;;;4973187;28;20419;-81
2021/06/12 05:38:25;;;;;;;9.87;9.17;;;25.10;57.10;;;;;;4957266;29;20434;-80
2021/06/12 05:40:53;;;;;;;8.93;8.17;;;25.20;57.10;;;;;;4972417;28;20426;-80
2021/06/12 05:43:20;;;;;;;11.47;10.47;;;25.20;57.00;;;;;;4972931;28;20543;-80
2021/06/12 05:45:48;;;;;;;10.10;9.30;;;25.20;56.90;;;;;;4973736;28;20419;-80
2021/06/12 05:48:17;;;;;;;9.90;9.07;;;25.20;56.80;;;;;;4970481;29;20438;-80
2021/06/12 05:50:46;;;;;;;9.03;8.33;;;25.30;56.80;;;;;;4972937;28;20426;-80
2021/06/12 05:53:13;;;;;;;10.47;9.57;;;25.30;56.80;;;;;;4957305;29;20411;-80
2021/06/12 05:55:40;;;;;;;10.17;8.77;;;25.30;56.80;;;;;;4973136;28;20446;-80
2021/06/12 05:58:07;;;;;;;9.47;8.70;;;25.30;56.80;;;;;;4973048;28;20446;-80
2021/06/12 06:00:36;;;;;;;10.97;9.47;;;25.30;56.70;;;;;;4973514;28;20422;-80
2021/06/12 06:03:05;;;;;;;10.10;9.13;;;25.30;56.80;;;;;;4973716;28;20507;-80
2021/06/12 06:05:38;;;;;;;9.47;8.67;;;25.30;56.80;;;;;;4958176;29;20435;-80
2021/06/12 06:08:05;;;;;;;10.13;9.23;;;25.40;56.70;;;;;;4957532;29;20419;-80
2021/06/12 06:10:32;;;;;;;9.20;8.50;;;25.40;56.80;;;;;;4957745;29;20419;-80
2021/06/12 06:13:04;;;;;;;10.07;9.27;;;25.40;56.70;;;;;;4972598;28;20455;-80
2021/06/12 06:15:30;;;;;;;8.70;8.00;;;25.40;56.70;;;;;;4958063;29;20423;-81
2021/06/12 06:17:56;;;;;;;10.60;9.80;;;25.40;56.70;;;;;;4972939;28;20494;-80
2021/06/12 06:20:23;;;;;;;8.87;8.17;;;25.40;56.60;;;;;;4972457;28;20425;-81
2021/06/12 06:22:51;;;;;;;9.00;8.30;;;25.40;56.60;;;;;;4957827;29;20458;-81
2021/06/12 06:25:18;;;;;;;9.43;8.50;;;25.50;56.70;;;;;;4972583;28;20422;-81
2021/06/12 06:27:45;;;;;;;8.73;8.07;;;25.50;56.60;;;;;;4971753;28;20417;-80
2021/06/12 06:30:12;;;;;;;9.13;8.43;;;25.50;56.60;;;;;;4956949;29;20423;-80
2021/06/12 06:32:39;;;;;;;9.00;8.27;;;25.50;56.60;;;;;;4957424;29;20411;-80
2021/06/12 06:35:21;;;;;;;8.87;8.17;;;25.50;56.50;;;;;;4956544;29;20447;-80
2021/06/12 06:37:48;;;;;;;12.67;8.00;;;25.50;56.50;;;;;;4953719;29;20851;-80
2021/06/12 06:40:19;;;;;;;9.00;8.30;;;25.50;56.50;;;;;;4955287;29;20471;-80
2021/06/12 06:42:49;;;;;;;8.77;8.07;;;25.50;56.50;;;;;;4954745;29;20494;-80
2021/06/12 06:45:22;;;;;;;8.47;7.53;;;25.50;56.50;;;;;;4954758;29;20411;-80
2021/06/12 06:47:49;;;;;;;8.10;7.50;;;25.50;56.40;;;;;;4954831;29;20407;-80
2021/06/12 06:50:16;;;;;;;8.57;7.87;;;25.50;56.40;;;;;;4952630;29;20434;-80
2021/06/12 06:52:44;;;;;;;8.70;8.00;;;25.60;56.50;;;;;;4937306;29;20502;-80
2021/06/12 06:55:26;;;;;;;8.50;7.80;;;25.60;56.50;;;;;;4952773;29;20417;-80
2021/06/12 06:57:56;;;;;;;8.60;7.90;;;25.60;56.50;;;;;;4950134;29;21012;-80
2021/06/12 07:00:27;;;;;;;8.70;8.00;;;25.60;56.50;;;;;;4967674;28;20790;-81
2021/06/12 07:02:56;;;;;;;9.37;8.57;;;25.60;56.40;;;;;;4966838;29;20446;-81
2021/06/12 07:05:24;;;;;;;8.53;7.90;;;25.60;56.40;;;;;;4951181;29;20905;-81
2021/06/12 07:08:09;;;;;;;8.03;7.43;;;25.60;56.40;;;;;;4951517;29;20417;-81
2021/06/12 07:10:40;;;;;;;7.77;7.17;;;25.60;56.40;;;;;;4949735;29;20446;-81
2021/06/12 07:13:20;;;;;;;8.70;8.00;;;25.60;56.40;;;;;;4966107;28;20422;-81
2021/06/12 07:15:56;;;;;;;9.23;8.50;;;25.60;56.40;;;;;;4951674;29;20406;-81
2021/06/12 07:18:22;;;;;;;9.53;8.63;;;25.60;56.40;;;;;;4951327;29;20414;-81
2021/06/12 07:20:53;;;;;;;8.40;7.80;;;25.60;56.50;;;;;;4966801;28;20419;-81
2021/06/12 07:23:27;;;;;;;8.00;7.40;;;25.60;56.50;;;;;;4965394;29;21014;-80
2021/06/12 07:26:02;;;;;;;7.27;6.73;;;25.60;56.50;;;;;;4949605;29;20407;-81
2021/06/12 07:28:29;;;;;;;8.77;8.10;;;25.60;56.40;;;;;;4950308;29;20414;-81
2021/06/12 07:30:56;;;;;;;8.43;7.63;;;25.60;57.00;;;;;;4951560;29;20945;-80
2021/06/12 07:33:25;;;;;;;7.60;7.00;;;25.60;56.40;;;;;;4967276;28;20434;-80
2021/06/12 07:35:52;;;;;;;8.13;7.43;;;25.60;56.40;;;;;;4949875;29;20819;-80
2021/06/12 07:38:28;;;;;;;8.87;8.03;;;25.60;56.50;;;;;;4966930;28;20442;-80
2021/06/12 07:40:55;;;;;;;9.20;8.40;;;25.60;56.70;;;;;;4967505;29;20481;-80
2021/06/12 07:43:24;;;;;;;9.40;8.60;;;25.50;56.70;;;;;;4951765;29;20482;-80
2021/06/12 07:45:50;;;;;;;8.47;7.77;;;25.50;56.70;;;;;;4952629;29;20426;-80
2021/06/12 07:48:16;;;;;;;9.60;8.80;;;25.50;56.70;;;;;;4953220;29;20415;-80
2021/06/12 07:50:51;;;;;;;10.53;9.43;;;25.50;56.70;;;;;;4966815;28;20478;-80
2021/06/12 07:53:17;;;;;;;9.63;8.73;;;25.50;57.20;;;;;;4966608;29;20414;-80
2021/06/12 07:55:43;;;;;;;9.80;9.00;;;25.50;56.70;;;;;;4951103;29;20427;-80
2021/06/12 07:58:09;;;;;;;9.27;8.47;;;25.50;56.80;;;;;;4965345;28;20195;-80
2021/06/12 08:00:43;;;;;;;8.67;7.97;;;25.40;56.70;;;;;;4965802;28;20425;-80
2021/06/12 08:03:10;;;;;;;8.90;8.10;;;25.50;56.60;;;;;;4966011;29;20519;-80
2021/06/12 08:05:43;;;;;;;9.73;8.70;;;25.50;56.60;;;;;;4965346;28;20473;-80
2021/06/12 08:11:00;;;;;;;8.37;7.57;;;25.50;56.60;;;;;;4956064;29;20419;-80
2021/06/12 08:13:35;;;;;;;8.53;7.93;;;25.50;56.60;;;;;;4957479;29;20403;-80
2021/06/12 08:16:06;;;;;;;8.53;7.83;;;25.50;56.60;;;;;;4957232;29;20454;-80
2021/06/12 08:18:36;;;;;;;8.30;7.60;;;25.50;56.60;;;;;;4972513;29;20415;-80
2021/06/12 08:21:11;;;;;;;9.40;8.50;;;25.60;56.60;;;;;;4972112;28;20422;-81
2021/06/12 08:23:41;;;;;;;7.40;6.70;;;25.60;56.70;;;;;;4972115;29;20482;-81
2021/06/12 08:26:08;;;;;;;9.00;8.20;;;25.60;56.60;;;;;;4956205;29;20419;-82
2021/06/12 08:28:44;;;;;;;7.97;7.37;;;25.60;56.60;;;;;;4971085;28;20434;-81
2021/06/12 08:31:24;;;;;;;8.90;8.10;;;25.60;56.60;;;;;;4956625;29;20479;-81
2021/06/12 08:33:58;;;;;;;7.40;6.80;;;25.60;56.50;;;;;;4944220;29;20454;-81
2021/06/12 08:36:36;;;;;;;8.50;7.80;;;25.60;56.50;;;;;;4975078;29;20457;-81
2021/06/12 08:39:30;;;;;;;8.80;8.10;;;25.70;56.60;;;;;;4959991;29;20406;-80
2021/06/12 08:42:12;;;;;;;7.73;7.13;;;25.60;56.60;;;;;;4959617;29;20565;-80
2021/06/12 08:44:44;;;;;;;9.07;8.30;;;25.60;56.60;;;;;;4959980;29;20458;-80
2021/06/12 08:47:19;;;;;;;7.83;7.20;;;25.60;56.60;;;;;;4972377;29;20450;-80
2021/06/12 08:49:55;;;;;;;8.10;7.50;;;25.60;56.50;;;;;;4974977;28;20493;-80
2021/06/12 09:02:20;;;;;;;7.37;6.73;;;25.60;56.50;;;;;;4902117;29;20404;-80
2021/06/12 09:08:33;;;;;;;8.13;7.43;;;25.70;56.60;;;;;;4900890;29;20393;-80
2021/06/12 09:11:21;;;;;;;6.87;6.37;;;25.70;56.60;;;;;;4888829;29;20436;-81
2021/06/12 09:14:03;;;;;;;7.37;6.77;;;25.70;56.60;;;;;;4881688;29;20446;-81
2021/06/12 09:16:48;;;;;;;7.90;7.30;;;25.70;56.50;;;;;;4896718;29;20441;-81
2021/06/12 09:19:16;;;;;;;7.00;6.50;;;25.70;56.50;;;;;;4881583;29;20590;-81
2021/06/12 09:21:47;;;;;;;7.67;6.97;;;25.80;56.50;;;;;;4880465;29;20430;-81
2021/06/12 09:24:49;;;;;;;6.57;6.07;;;25.80;56.40;;;;;;4881314;29;20525;-81
2021/06/12 09:27:38;;;;;;;6.43;5.93;;;25.80;56.40;;;;;;4881910;29;20421;-81
2021/06/12 09:30:08;;;;;;;5.93;5.43;;;25.80;56.40;;;;;;4887834;29;20418;-80
2021/06/12 09:32:46;;;;;;;7.50;6.90;;;25.80;56.40;;;;;;4923410;29;20410;-80
2021/06/12 09:35:13;;;;;;;7.10;6.60;;;25.80;56.40;;;;;;4971241;29;20411;-80
2021/06/12 09:37:47;;;;;;;6.50;5.97;;;25.70;56.40;;;;;;4955356;29;20992;-80
2021/06/12 09:40:31;;;;;;;7.83;6.70;;;25.80;56.40;;;;;;4956672;29;20396;-80
2021/06/12 09:43:00;;;;;;;6.40;5.80;;;25.80;56.40;;;;;;4955801;29;20451;-80
2021/06/12 09:45:37;;;;;;;6.53;6.03;;;25.80;56.40;;;;;;4972069;28;20439;-80
2021/06/12 09:48:28;;;;;;;6.53;5.93;;;25.80;56.30;;;;;;4956193;29;20520;-80
2021/06/12 09:51:14;;;;;;;6.00;5.60;;;25.80;56.20;;;;;;4971197;29;20407;-81
2021/06/12 09:54:05;;;;;;;6.00;5.60;;;25.80;56.20;;;;;;4970855;29;20427;-81
2021/06/12 09:56:37;;;;;;;5.63;5.23;;;25.80;56.20;;;;;;4972257;29;20403;-81
2021/06/12 09:59:22;;;;;;;6.10;5.60;;;25.80;56.10;;;;;;4972379;28;20472;-81
2021/06/12 10:02:00;;;;;;;6.57;4.63;;;25.80;56.00;;;;;;4971296;28;20789;-80
2021/06/12 10:04:33;;;;;;;5.17;4.77;;;25.80;56.00;;;;;;4970696;29;20451;-80
2021/06/12 10:07:04;;;;;;;5.97;5.47;;;25.80;56.10;;;;;;4971180;29;20928;-79
2021/06/12 10:09:35;;;;;;;5.57;5.17;;;25.80;56.10;;;;;;4956108;29;20482;-79
2021/06/12 10:12:01;;;;;;;4.93;4.53;;;25.80;56.10;;;;;;4956699;29;20421;-80
2021/06/12 10:14:34;;;;;;;5.77;5.27;;;25.80;56.20;;;;;;4956900;29;20781;-80
2021/06/12 10:17:22;;;;;;;5.80;5.40;;;25.80;56.20;;;;;;4957041;29;20439;-80
2021/06/12 10:19:58;;;;;;;5.63;5.23;;;25.80;56.20;;;;;;4955618;29;20391;-80
2021/06/12 10:22:24;;;;;;;5.30;4.90;;;25.80;56.30;;;;;;4952438;29;20525;-80
2021/06/12 10:24:56;;;;;;;6.20;5.63;;;25.80;56.30;;;;;;4954162;29;20406;-80
2021/06/12 10:27:37;;;;;;;5.37;4.97;;;25.80;56.30;;;;;;4952034;29;20207;-80
2021/06/12 10:30:06;;;;;;;5.20;4.80;;;25.80;56.20;;;;;;4967946;29;20506;-81
2021/06/12 10:32:35;;;;;;;5.10;4.70;;;25.80;56.30;;;;;;4968092;28;20414;-80
2021/06/12 10:35:04;;;;;;;5.10;4.70;;;25.80;56.40;;;;;;4950936;29;20414;-80
2021/06/12 10:38:15;;;;;;;8.40;4.87;;;25.80;56.30;;;;;;4935832;29;20988;-81
2021/06/12 10:40:43;;;;;;;4.93;4.47;;;25.90;56.30;;;;;;4967425;29;20407;-80
2021/06/12 10:43:25;;;;;;;5.10;4.70;;;25.80;56.30;;;;;;4953450;29;20508;-80
2021/06/12 10:46:07;;;;;;;5.07;4.67;;;25.80;56.30;;;;;;4954239;29;20395;-81
2021/06/12 10:48:53;;;;;;;5.13;4.73;;;25.80;56.20;;;;;;4952748;29;20415;-81
2021/06/12 10:51:31;;;;;;;4.20;3.90;;;25.80;56.20;;;;;;4952367;29;20434;-81
2021/06/12 10:54:34;;;;;;;5.07;4.60;;;25.90;56.10;;;;;;4951842;29;20426;-81
2021/06/12 10:57:24;;;;;;;4.63;4.13;;;25.90;56.00;;;;;;4862295;29;20422;-81
2021/06/12 11:06:59;;;;;;;3.77;3.50;;;25.80;56.20;;;;;;4877762;29;20423;-80
2021/06/12 11:09:35;;;;;;;4.17;3.77;;;25.80;56.20;;;;;;4879207;29;20905;-80
2021/06/12 11:12:13;;;;;;;3.63;3.33;;;25.80;56.30;;;;;;4878487;29;20457;-81
2021/06/12 11:15:09;;;;;;;4.10;3.70;;;25.80;56.20;;;;;;4861981;29;20571;-80
2021/06/12 11:17:49;;;;;;;4.70;3.80;;;25.80;56.10;;;;;;4846983;29;20410;-80
2021/06/12 11:20:32;;;;;;;4.50;4.10;;;25.80;56.20;;;;;;4864292;29;20825;-80
2021/06/12 11:23:07;;;;;;;4.53;4.10;;;25.90;56.30;;;;;;4866766;29;20473;-80
2021/06/12 11:25:48;;;;;;;4.80;4.40;;;25.80;56.30;;;;;;4865762;29;20497;-81
2021/06/12 11:28:33;;;;;;;4.00;3.70;;;25.80;56.20;;;;;;4861336;29;20487;-81
2021/06/12 11:31:44;;;;;;;3.90;3.60;;;25.90;56.20;;;;;;4881489;29;20484;-81
2021/06/12 11:34:48;;;;;;;3.73;3.43;;;25.90;56.20;;;;;;4924917;29;20411;-80
2021/06/12 11:37:50;;;;;;;4.20;3.90;;;25.90;56.20;;;;;;4941874;29;20426;-81
2021/06/12 11:40:43;;;;;;;4.07;3.77;;;25.80;56.20;;;;;;4972663;29;20678;-80
2021/06/12 11:43:13;;;;;;;4.20;3.90;;;25.80;56.20;;;;;;4956358;29;20511;-80
2021/06/12 11:49:32;;;;;;;3.50;3.20;;;25.90;56.30;;;;;;4961747;29;20414;-80
2021/06/12 11:52:17;;;;;;;3.53;3.23;;;25.80;56.30;;;;;;4961561;29;20470;-80
2021/06/12 11:55:28;;;;;;;4.20;3.80;;;25.80;56.20;;;;;;4976016;28;20473;-80
2021/06/12 11:58:03;;;;;;;3.33;3.07;;;25.80;56.20;;;;;;4966483;28;20415;-79
2021/06/12 12:01:04;;;;;;;4.00;3.70;;;25.80;56.20;;;;;;4959745;29;20442;-79
2021/06/12 12:07:05;;;;;;;3.77;3.47;;;25.90;56.20;;;;;;4958696;29;20379;-80
2021/06/12 12:09:35;;;;;;;3.77;3.47;;;25.80;56.20;;;;;;4956581;29;20451;-81
2021/06/12 12:12:07;;;;;;;3.60;3.30;;;25.80;56.20;;;;;;4956292;29;20423;-80
2021/06/12 12:14:52;;;;;;;3.37;3.10;;;25.80;56.20;;;;;;4956277;29;20428;-81
2021/06/12 12:17:28;;;;;;;4.60;3.40;;;25.80;56.70;;;;;;4926559;29;20423;-81
2021/06/12 12:20:09;;;;;;;3.50;3.20;;;25.90;55.90;;;;;;4972104;28;20424;-81
2021/06/12 12:22:48;;;;;;;3.10;2.83;;;25.80;55.80;;;;;;4954670;29;20512;-81
2021/06/12 12:25:16;;;;;;;2.70;2.50;;;25.90;55.70;;;;;;4970624;29;20921;-81
2021/06/12 12:27:59;;;;;;;3.03;2.83;;;25.90;55.60;;;;;;4970735;28;20423;-81
2021/06/12 12:30:30;;;;;;;3.00;2.80;;;25.90;55.50;;;;;;4943335;29;20415;-81
2021/06/12 12:33:23;;;;;;;4.57;2.50;;;25.80;55.50;;;;;;4945325;29;20427;-81
2021/06/12 12:39:13;;;;;;;3.30;2.80;;;25.90;55.60;;;;;;4945315;29;20429;-81
2021/06/12 12:41:40;;;;;;;2.80;2.60;;;25.90;55.60;;;;;;4957334;29;20418;-81
2021/06/12 12:44:10;;;;;;;2.60;2.33;;;25.80;55.60;;;;;;4952966;29;20451;-81
2021/06/12 12:46:37;;;;;;;3.40;3.10;;;25.90;55.60;;;;;;4968021;28;20415;-81
2021/06/12 12:49:05;;;;;;;3.70;3.40;;;25.90;55.60;;;;;;4956021;29;20456;-81
2021/06/12 12:51:37;;;;;;;2.83;2.63;;;25.90;55.60;;;;;;4955785;29;20486;-81
2021/06/12 12:54:26;;;;;;;2.67;2.47;;;25.90;55.60;;;;;;4954144;29;20422;-81
2021/06/12 12:57:18;;;;;;;3.03;2.73;;;25.90;56.00;;;;;;4945621;29;20491;-81
2021/06/12 13:00:00;;;;;;;3.93;2.83;;;25.90;55.30;;;;;;4951535;29;20549;-80
2021/06/12 13:02:45;;;;;;;3.87;3.23;;;25.90;55.40;;;;;;4948692;29;20436;-80
2021/06/12 13:05:29;;;;;;;5.87;5.10;;;25.90;55.50;;;;;;4942375;29;20459;-80
2021/06/12 13:08:01;;;;;;;8.20;4.90;;;25.90;55.50;;;;;;4943021;29;20443;-81
2021/06/12 13:10:53;;;;;;;12.90;10.40;;;25.90;55.50;;;;;;4964325;28;20478;-80
2021/06/12 13:13:20;;;;;;;17.53;11.20;;;25.90;55.50;;;;;;4959552;29;20424;-80
2021/06/12 13:15:54;;;;;;;12.33;11.03;;;25.90;55.50;;;;;;4951078;29;20446;-80
2021/06/12 13:18:24;;;;;;;25.37;14.20;;;25.90;55.50;;;;;;4950583;29;20432;-80
2021/06/12 13:21:38;;;;;;;311.80;130.27;;;25.90;55.30;;;;;;4951827;29;20431;-81
2021/06/12 13:24:23;;;;;;;583.77;284.13;;;26.00;55.00;;;;;;4939121;29;20470;-81
2021/06/12 13:26:54;;;;;;;565.20;273.07;;;25.90;54.20;;;;;;4943148;29;20423;-80
2021/06/12 13:29:28;;;;;;;545.03;253.60;;;26.00;54.20;;;;;;4952725;29;20423;-80
2021/06/12 13:31:58;;;;;;;389.27;193.87;;;26.00;54.40;;;;;;4959319;29;20427;-80
2021/06/12 13:34:32;;;;;;;344.43;150.97;;;25.90;54.20;;;;;;4949431;29;20424;-80
2021/06/12 13:37:06;;;;;;;154.40;73.87;;;26.00;54.30;;;;;;4953371;29;20429;-81
2021/06/12 13:39:42;;;;;;;86.27;41.60;;;26.00;53.90;;;;;;4963045;29;20428;-81
2021/06/12 13:42:20;;;;;;;49.00;26.60;;;26.00;53.70;;;;;;4947726;29;20415;-81
2021/06/12 13:45:35;;;;;;;29.77;17.37;;;26.00;53.60;;;;;;4954813;29;20459;-79